createdAt,value
2018-06-15T00:00:19.291Z,1.3
2018-06-15T00:02:18.082Z,1.7
2018-06-15T00:04:17.848Z,1.3
2018-06-15T00:06:19.391Z,1.1
2018-06-15T00:08:18.171Z,1.9
2018-06-15T00:10:18.384Z,1.6
2018-06-15T00:12:19.192Z,1.6
2018-06-15T00:14:17.975Z,1.7
2018-06-15T00:16:19.438Z,2.1
2018-06-15T00:18:19.301Z,1.6
2018-06-15T00:20:19.070Z,1.4
2018-06-15T00:22:17.830Z,1.6
2018-06-15T00:24:18.583Z,2.1
2018-06-15T00:26:18.083Z,2
2018-06-15T00:28:18.866Z,1.5
2018-06-15T00:30:18.665Z,2.5
2018-06-15T00:32:19.416Z,2
2018-06-15T00:34:18.207Z,2.6
2018-06-15T00:36:19.234Z,2
2018-06-15T00:38:18.022Z,2.7
2018-06-15T00:40:19.237Z,2.7
2018-06-15T00:42:19.019Z,2.8
2018-06-15T00:44:18.788Z,2.6
2018-06-15T00:46:19.284Z,3
2018-06-15T00:48:19.062Z,3.1
2018-06-15T00:50:18.839Z,3
2018-06-15T00:52:18.613Z,3.4
2018-06-15T00:54:19.408Z,3.4
2018-06-15T00:56:19.508Z,3.2
2018-06-15T00:58:19.266Z,2.9
2018-06-15T01:00:18.063Z,3.8
2018-06-15T01:02:18.831Z,3.3
2018-06-15T01:04:17.593Z,3.6
2018-06-15T01:06:17.613Z,3.1
2018-06-15T01:08:19.398Z,3.3
2018-06-15T01:10:18.626Z,3.1
2018-06-15T01:12:19.389Z,2.8
2018-06-15T01:14:18.162Z,3.6
2018-06-15T01:16:19.181Z,3
2018-06-15T01:18:19.034Z,3.3
2018-06-15T01:20:18.821Z,3.1
2018-06-15T01:22:18.604Z,3.1
2018-06-15T01:24:19.423Z,3.1
2018-06-15T01:26:18.936Z,2.7
2018-06-15T01:28:18.705Z,3
2018-06-15T01:30:19.485Z,3.2
2018-06-15T01:32:19.283Z,2.7
2018-06-15T01:34:19.062Z,3.6
2018-06-15T01:36:19.057Z,3.2
2018-06-15T01:38:18.834Z,3
2018-06-15T01:40:19.039Z,3.7
2018-06-15T01:42:18.814Z,4.3
2018-06-15T01:44:18.579Z,3.2
2018-06-15T01:46:18.239Z,2.9
2018-06-15T01:48:19.007Z,3.6
2018-06-15T01:50:18.788Z,2.7
2018-06-15T01:52:17.552Z,3.4
2018-06-15T01:54:19.336Z,3.7
2018-06-15T01:56:17.801Z,3.1
2018-06-15T01:58:17.585Z,3.8
2018-06-15T02:00:19.385Z,3.4
2018-06-15T02:02:19.164Z,3.7
2018-06-15T02:04:17.929Z,3.9
2018-06-15T02:06:17.942Z,3.3
2018-06-15T02:08:17.710Z,3.4
2018-06-15T02:10:18.967Z,4
2018-06-15T02:12:18.752Z,4
2018-06-15T02:14:18.511Z,3.4
2018-06-15T02:16:17.550Z,4.3
2018-06-15T02:18:19.420Z,4.4
2018-06-15T02:20:18.241Z,4.8
2018-06-15T02:22:18.993Z,3.7
2018-06-15T02:24:17.758Z,4.1
2018-06-15T02:26:18.835Z,4
2018-06-15T02:28:17.613Z,4.4
2018-06-15T02:30:19.394Z,4.1
2018-06-15T02:32:19.197Z,4.3
2018-06-15T02:34:17.981Z,3.9
2018-06-15T02:36:18.491Z,3.7
2018-06-15T02:38:19.274Z,5.1
2018-06-15T02:40:18.517Z,4.4
2018-06-15T02:42:19.308Z,4.8
2018-06-15T02:44:18.084Z,4.3
2018-06-15T02:46:19.106Z,5.2
2018-06-15T02:48:18.913Z,4.5
2018-06-15T02:50:17.708Z,4.2
2018-06-15T02:52:19.500Z,5.2
2018-06-15T02:54:19.286Z,4.4
2018-06-15T02:56:19.321Z,4.4
2018-06-15T02:58:19.064Z,4.6
2018-06-15T03:00:18.866Z,4.5
2018-06-15T03:02:18.637Z,4.6
2018-06-15T03:04:19.438Z,4.7
2018-06-15T03:06:18.502Z,4.3
2018-06-15T03:08:19.291Z,5.4
2018-06-15T03:10:18.708Z,4.4
2018-06-15T03:12:18.503Z,5.2
2018-06-15T03:14:19.277Z,4.6
2018-06-15T03:16:18.312Z,4.8
2018-06-15T03:18:19.178Z,4.7
2018-06-15T03:20:18.962Z,4.7
2018-06-15T03:22:18.725Z,5.5
2018-06-15T03:24:19.491Z,5.5
2018-06-15T03:26:17.551Z,5.3
2018-06-15T03:28:19.313Z,4.8
2018-06-15T03:30:19.111Z,5
2018-06-15T03:32:18.903Z,4.4
2018-06-15T03:34:17.713Z,5
2018-06-15T03:36:18.249Z,4.9
2018-06-15T03:38:19.008Z,4.4
2018-06-15T03:40:18.233Z,4.5
2018-06-15T03:42:18.008Z,4.5
2018-06-15T03:44:18.792Z,3.9
2018-06-15T03:46:19.318Z,4.1
2018-06-15T03:48:18.091Z,4.9
2018-06-15T03:50:18.883Z,5.2
2018-06-15T03:52:18.663Z,4.7
2018-06-15T03:54:18.450Z,4
2018-06-15T03:56:17.927Z,4.4
2018-06-15T03:58:18.696Z,4.1
2018-06-15T04:00:19.503Z,4.6
2018-06-15T04:02:18.306Z,5.1
2018-06-15T04:04:18.064Z,4.2
2018-06-15T04:06:19.087Z,4.7
2018-06-15T04:08:17.858Z,5.4
2018-06-15T04:10:19.069Z,5.1
2018-06-15T04:12:17.846Z,5.6
2018-06-15T04:14:18.661Z,4.9
2018-06-15T04:16:19.129Z,5.5
2018-06-15T04:18:18.978Z,5.8
2018-06-15T04:20:18.784Z,5.6
2018-06-15T04:22:17.580Z,5.2
2018-06-15T04:24:19.338Z,6.2
2018-06-15T04:26:17.832Z,5.5
2018-06-15T04:28:18.583Z,5.8
2018-06-15T04:30:19.374Z,5.5
2018-06-15T04:32:18.154Z,5.1
2018-06-15T04:34:17.939Z,5
2018-06-15T04:36:18.461Z,4.7
2018-06-15T04:38:19.214Z,4.8
2018-06-15T04:40:19.446Z,4.5
2018-06-15T04:42:18.251Z,4.3
2018-06-15T04:44:18.033Z,4.6
2018-06-15T04:46:18.505Z,4.4
2018-06-15T04:48:18.295Z,5.1
2018-06-15T04:50:19.102Z,4.6
2018-06-15T04:52:18.854Z,4.2
2018-06-15T04:54:18.629Z,4.8
2018-06-15T04:56:18.804Z,5.2
2018-06-15T04:58:17.695Z,4.9
2018-06-15T05:00:19.489Z,4.4
2018-06-15T05:02:18.284Z,5.9
2018-06-15T05:04:19.074Z,4.5
2018-06-15T05:06:18.533Z,5.8
2018-06-15T05:08:19.323Z,5.5
2018-06-15T05:10:18.566Z,5.2
2018-06-15T05:12:19.337Z,5.5
2018-06-15T05:14:19.112Z,4.4
2018-06-15T05:16:18.122Z,5.4
2018-06-15T05:18:17.947Z,5
2018-06-15T05:20:18.717Z,5.5
2018-06-15T05:22:18.494Z,5.2
2018-06-15T05:24:18.310Z,5.9
2018-06-15T05:26:18.350Z,4.7
2018-06-15T05:28:19.106Z,4.8
2018-06-15T05:30:17.892Z,4.7
2018-06-15T05:32:17.659Z,5
2018-06-15T05:34:19.445Z,4.9
2018-06-15T05:36:18.149Z,5.3
2018-06-15T05:38:18.953Z,4.3
2018-06-15T05:40:18.162Z,4.5
2018-06-15T05:42:17.914Z,4.7
2018-06-15T05:44:17.694Z,5.8
2018-06-15T05:46:17.746Z,5.8
2018-06-15T05:48:18.496Z,6
2018-06-15T05:50:19.276Z,5.9
2018-06-15T05:52:18.048Z,5.4
2018-06-15T05:54:18.800Z,5.8
2018-06-15T05:56:17.844Z,5.4
2018-06-15T05:58:17.625Z,6
2018-06-15T06:00:18.411Z,4.9
2018-06-15T06:02:18.143Z,5.1
2018-06-15T06:04:17.891Z,6.1
2018-06-15T06:06:18.435Z,5.5
2018-06-15T06:08:19.224Z,5.7
2018-06-15T06:10:19.436Z,5.8
2018-06-15T06:12:18.239Z,5.1
2018-06-15T06:14:18.000Z,5.9
2018-06-15T06:16:19.058Z,6.1
2018-06-15T06:18:17.899Z,4.8
2018-06-15T06:20:17.682Z,6.2
2018-06-15T06:22:19.480Z,6.1
2018-06-15T06:24:19.240Z,6
2018-06-15T06:26:19.377Z,5.1
2018-06-15T06:28:19.149Z,5.3
2018-06-15T06:30:17.915Z,6.4
2018-06-15T06:32:17.679Z,5.2
2018-06-15T06:34:19.435Z,5.8
2018-06-15T06:36:17.961Z,5.8
2018-06-15T06:38:17.712Z,5.2
2018-06-15T06:40:17.937Z,5.6
2018-06-15T06:42:17.714Z,5.7
2018-06-15T06:44:19.480Z,6.2
2018-06-15T06:46:17.955Z,6.1
2018-06-15T06:48:17.741Z,6.3
2018-06-15T06:50:18.536Z,7
2018-06-15T06:52:19.352Z,6.7
2018-06-15T06:54:19.129Z,6.1
2018-06-15T06:56:19.172Z,7.4
2018-06-15T06:58:17.941Z,6.7
2018-06-15T07:00:17.714Z,6.9
2018-06-15T07:02:17.509Z,5.1
2018-06-15T07:04:18.282Z,6.4
2018-06-15T07:06:18.467Z,6.3
2018-06-15T07:08:19.372Z,6.7
2018-06-15T07:10:17.801Z,7.3
2018-06-15T07:12:17.567Z,6.6
2018-06-15T07:14:19.368Z,6.6
2018-06-15T07:16:17.949Z,6.3
2018-06-15T07:18:17.811Z,6.2
2018-06-15T07:20:17.608Z,5.9
2018-06-15T07:22:18.395Z,6.5
2018-06-15T07:24:18.169Z,6
2018-06-15T07:26:18.185Z,6.8
2018-06-15T07:28:17.967Z,6.4
2018-06-15T07:30:17.755Z,6
2018-06-15T07:32:17.528Z,5.9
2018-06-15T07:34:19.318Z,5.8
2018-06-15T07:36:17.746Z,5.3
2018-06-15T07:38:17.524Z,4.4
2018-06-15T07:40:17.918Z,5.1
2018-06-15T07:42:17.705Z,5.3
2018-06-15T07:44:18.503Z,5.4
2018-06-15T07:46:18.040Z,4
2018-06-15T07:48:17.793Z,3.6
2018-06-15T07:50:18.568Z,3.4
2018-06-15T07:52:18.366Z,3.7
2018-06-15T07:54:18.134Z,3.4
2018-06-15T07:56:17.634Z,3.2
2018-06-15T07:58:18.408Z,3.8
2018-06-15T08:00:18.209Z,3.2
2018-06-15T08:02:17.978Z,3.6
2018-06-15T08:04:17.745Z,3.1
2018-06-15T08:06:18.219Z,3.3
2018-06-15T08:08:18.015Z,3.1
2018-06-15T08:10:18.255Z,3.1
2018-06-15T08:12:18.196Z,3.9
2018-06-15T08:14:17.981Z,3.9
2018-06-15T08:16:17.526Z,3.1
2018-06-15T08:18:18.386Z,3.3
2018-06-15T08:20:18.193Z,3.7
2018-06-15T08:22:17.969Z,3.8
2018-06-15T08:24:17.752Z,2.8
2018-06-15T08:26:17.747Z,3.2
2018-06-15T08:28:17.512Z,3.6
2018-06-15T08:30:18.303Z,4
2018-06-15T08:32:18.056Z,4.8
2018-06-15T08:34:17.840Z,3.7
2018-06-15T08:36:18.337Z,3.4
2018-06-15T08:38:18.104Z,4.4
2018-06-15T08:40:18.352Z,3.8
2018-06-15T08:42:18.145Z,3.1
2018-06-15T08:44:18.011Z,3.9
2018-06-15T08:46:17.536Z,3.4
2018-06-15T08:48:18.308Z,3.3
2018-06-15T08:50:18.116Z,3
2018-06-15T08:52:17.892Z,3.9
2018-06-15T08:54:17.675Z,3.3
2018-06-15T08:56:17.740Z,3.1
2018-06-15T08:58:17.515Z,3
2018-06-15T09:00:18.323Z,3.1
2018-06-15T09:02:18.103Z,3.5
2018-06-15T09:04:17.867Z,2.4
2018-06-15T09:06:18.406Z,3.1
2018-06-15T09:08:18.188Z,2.6
2018-06-15T09:10:18.444Z,2.4
2018-06-15T09:12:18.238Z,3.2
2018-06-15T09:14:18.016Z,3.2
2018-06-15T09:16:17.548Z,3.7
2018-06-15T09:18:18.400Z,4
2018-06-15T09:20:18.197Z,4.1
2018-06-15T09:22:17.963Z,4.1
2018-06-15T09:24:17.728Z,3.3
2018-06-15T09:26:17.730Z,3.8
2018-06-15T09:28:17.512Z,4.5
2018-06-15T09:30:18.350Z,4.5
2018-06-15T09:32:18.117Z,5.3
2018-06-15T09:34:17.880Z,4.1
2018-06-15T09:36:17.910Z,4.7
2018-06-15T09:38:17.669Z,4.1
2018-06-15T09:40:17.904Z,4.2
2018-06-15T09:42:17.688Z,3.7
2018-06-15T09:44:18.495Z,4.8
2018-06-15T09:46:17.582Z,4
2018-06-15T09:48:18.414Z,3.4
2018-06-15T09:50:18.319Z,4.8
2018-06-15T09:52:18.108Z,3.2
2018-06-15T09:54:17.884Z,3.1
2018-06-15T09:56:18.425Z,2.9
2018-06-15T09:58:18.226Z,2.8
2018-06-15T10:00:18.108Z,2.5
2018-06-15T10:02:17.883Z,2.3
2018-06-15T10:04:17.650Z,2.1
2018-06-15T10:06:17.796Z,2.7
2018-06-15T10:08:17.595Z,2.8
2018-06-15T10:10:17.869Z,3
2018-06-15T10:12:17.651Z,3
2018-06-15T10:14:18.427Z,3.3
2018-06-15T10:16:17.939Z,2.1
2018-06-15T10:18:17.807Z,1.5
2018-06-15T10:20:17.603Z,1.8
2018-06-15T10:22:18.390Z,1.1
2018-06-15T10:24:18.170Z,1.6
2018-06-15T10:26:18.204Z,2.3
2018-06-15T10:28:18.001Z,1.6
2018-06-15T10:30:17.800Z,1.6
2018-06-15T10:32:17.580Z,2.1
2018-06-15T10:34:18.376Z,1.5
2018-06-15T10:36:17.909Z,1.4
2018-06-15T10:38:17.681Z,1.6
2018-06-15T10:40:17.876Z,1.6
2018-06-15T10:42:17.631Z,1.7
2018-06-15T10:44:18.414Z,1.5
2018-06-15T10:46:17.916Z,1.5
2018-06-15T10:48:17.726Z,1.8
2018-06-15T10:50:18.515Z,1.2
2018-06-15T10:52:18.325Z,1
2018-06-15T10:54:18.088Z,1.5
2018-06-15T10:56:18.262Z,1.8
2018-06-15T10:58:18.110Z,2.3
2018-06-15T11:00:17.889Z,1.5
2018-06-15T11:02:17.743Z,1.4
2018-06-15T11:04:17.575Z,1.2
2018-06-15T11:06:18.058Z,1
2018-06-15T11:08:17.825Z,0.9
2018-06-15T11:10:18.026Z,0.8
2018-06-15T11:12:17.824Z,0.8
2018-06-15T11:14:17.606Z,0.8
2018-06-15T11:16:18.163Z,0.8
2018-06-15T11:18:18.014Z,0.8
2018-06-15T11:20:17.817Z,1.1
2018-06-15T11:22:17.599Z,1.2
2018-06-15T11:24:18.373Z,1.2
2018-06-15T11:26:17.996Z,1.6
2018-06-15T11:28:17.780Z,0.8
2018-06-15T11:30:17.571Z,1.2
2018-06-15T11:32:18.361Z,1.3
2018-06-15T11:34:18.148Z,0.8
2018-06-15T11:36:17.644Z,1
2018-06-15T11:38:18.430Z,1.6
2018-06-15T11:40:17.696Z,0.9
2018-06-15T11:42:18.500Z,0.6
2018-06-15T11:44:18.312Z,0.6
2018-06-15T11:46:18.361Z,0.7
2018-06-15T11:48:18.131Z,0.5
2018-06-15T11:50:17.950Z,0.7
2018-06-15T11:52:17.716Z,0.5
2018-06-15T11:54:18.501Z,0.7
2018-06-15T11:56:18.538Z,0.7
2018-06-15T11:58:18.356Z,0.6
2018-06-15T12:00:18.192Z,0.9
2018-06-15T12:02:17.970Z,0.8
2018-06-15T12:04:17.780Z,1.2
2018-06-15T12:06:17.793Z,0.6
2018-06-15T12:08:17.588Z,0.8
2018-06-15T12:10:17.857Z,0.8
2018-06-15T12:12:17.642Z,0.8
2018-06-15T12:14:18.464Z,0.8
2018-06-15T12:16:18.027Z,1
2018-06-15T12:18:17.882Z,0.5
2018-06-15T12:20:17.703Z,1.1
2018-06-15T12:22:18.480Z,1.1
2018-06-15T12:24:18.267Z,0.6
2018-06-15T12:26:17.758Z,0.7
2018-06-15T12:28:17.542Z,1
2018-06-15T12:30:18.358Z,0.9
2018-06-15T12:32:18.147Z,0.6
2018-06-15T12:34:17.948Z,1.4
2018-06-15T12:36:18.325Z,0.8
2018-06-15T12:38:18.122Z,1.4
2018-06-15T12:40:18.341Z,0.9
2018-06-15T12:42:18.117Z,1
2018-06-15T12:44:17.910Z,1.2
2018-06-15T12:46:18.399Z,0.9
2018-06-15T12:48:18.204Z,1.3
2018-06-15T12:50:17.988Z,1
2018-06-15T12:52:17.787Z,0.8
2018-06-15T12:54:17.577Z,0.6
2018-06-15T12:56:18.130Z,0.5
2018-06-15T12:58:17.941Z,0.5
2018-06-15T13:00:17.740Z,0.6
2018-06-15T13:02:17.523Z,0.8
2018-06-15T13:04:18.347Z,0.9
2018-06-15T13:06:18.362Z,0.7
2018-06-15T13:08:18.142Z,0.7
2018-06-15T13:10:18.412Z,0.8
2018-06-15T13:12:18.230Z,0.8
2018-06-15T13:14:18.022Z,0.9
2018-06-15T13:16:18.504Z,0.5
2018-06-15T13:18:18.400Z,1.3
2018-06-15T13:20:18.252Z,0.7
2018-06-15T13:22:18.041Z,0.6
2018-06-15T13:24:17.839Z,0.6
2018-06-15T13:26:18.381Z,0.6
2018-06-15T13:28:18.197Z,0.5
2018-06-15T13:30:18.072Z,0.6
2018-06-15T13:32:17.877Z,0.6
2018-06-15T13:34:17.670Z,0.6
2018-06-15T13:36:17.734Z,0.6
2018-06-15T13:38:17.552Z,0.8
2018-06-15T13:40:17.811Z,0.6
2018-06-15T13:42:17.611Z,0.6
2018-06-15T13:44:18.422Z,0.7
2018-06-15T13:46:17.973Z,0.6
2018-06-15T13:48:17.764Z,0.9
2018-06-15T13:50:17.574Z,0.8
2018-06-15T13:52:18.382Z,0.6
2018-06-15T13:54:18.184Z,0.7
2018-06-15T13:56:18.248Z,0.6
2018-06-15T13:58:18.036Z,0.6
2018-06-15T14:00:17.912Z,0.7
2018-06-15T14:02:17.803Z,0.8
2018-06-15T14:04:17.609Z,0.8
2018-06-15T14:06:18.148Z,0.9
2018-06-15T14:08:17.978Z,0.6
2018-06-15T14:10:18.259Z,1.9
2018-06-15T14:12:18.097Z,0.6
2018-06-15T14:14:17.925Z,0.6
2018-06-15T14:16:17.947Z,0.7
2018-06-15T14:18:17.833Z,0.9
2018-06-15T14:20:17.634Z,0.8
2018-06-15T14:22:18.463Z,0.9
2018-06-15T14:24:18.247Z,0.7
2018-06-15T14:26:17.779Z,0.5
2018-06-15T14:28:17.565Z,0.6
2018-06-15T14:30:18.380Z,0.6
2018-06-15T14:32:18.172Z,0.5
2018-06-15T14:34:17.961Z,0.7
2018-06-15T14:36:18.134Z,0.5
2018-06-15T14:38:17.932Z,0.5
2018-06-15T14:40:18.172Z,1.1
2018-06-15T14:42:17.958Z,0.8
2018-06-15T14:44:17.752Z,1
2018-06-15T14:46:18.385Z,0.8
2018-06-15T14:48:18.162Z,0.9
2018-06-15T14:50:17.985Z,0.9
2018-06-15T14:52:17.784Z,0.5
2018-06-15T14:54:17.605Z,0.8
2018-06-15T14:56:18.112Z,0.7
2018-06-15T14:58:17.894Z,0.9
2018-06-15T15:00:17.708Z,1
2018-06-15T15:02:18.491Z,0.9
2018-06-15T15:04:18.301Z,0.7
2018-06-15T15:06:18.331Z,0.9
2018-06-15T15:08:18.112Z,0.9
2018-06-15T15:10:18.451Z,0.9
2018-06-15T15:12:18.273Z,1.1
2018-06-15T15:14:18.075Z,1.2
2018-06-15T15:16:18.117Z,1.1
2018-06-15T15:18:18.028Z,1
2018-06-15T15:20:17.978Z,0.8
2018-06-15T15:22:17.777Z,1.1
2018-06-15T15:24:17.584Z,1
2018-06-15T15:26:18.092Z,1
2018-06-15T15:28:17.875Z,1.3
2018-06-15T15:30:17.696Z,1
2018-06-15T15:32:18.510Z,0.9
2018-06-15T15:34:18.284Z,1.4
2018-06-15T15:36:17.893Z,0.9
2018-06-15T15:38:17.793Z,1
2018-06-15T15:40:18.073Z,0.9
2018-06-15T15:42:17.845Z,0.9
2018-06-15T15:44:17.634Z,0.9
2018-06-15T15:46:17.882Z,0.6
2018-06-15T15:48:17.672Z,1
2018-06-15T15:50:18.495Z,1.5
2018-06-15T15:52:18.318Z,0.9
2018-06-15T15:54:18.117Z,1.2
2018-06-15T15:56:17.651Z,1.3
2018-06-15T15:58:18.450Z,1
2018-06-15T16:00:18.278Z,1
2018-06-15T16:02:18.060Z,1.1
2018-06-15T16:04:17.856Z,1.1
2018-06-15T16:06:18.381Z,1.4
2018-06-15T16:08:18.167Z,1.2
2018-06-15T16:10:18.419Z,1.5
2018-06-15T16:12:18.225Z,1.4
2018-06-15T16:14:18.033Z,1.7
2018-06-15T16:16:18.034Z,1.2
2018-06-15T16:18:17.877Z,1.4
2018-06-15T16:20:17.836Z,1.3
2018-06-15T16:22:17.768Z,1.1
2018-06-15T16:24:17.563Z,1.6
2018-06-15T16:26:18.181Z,1.4
2018-06-15T16:28:17.992Z,1.9
2018-06-15T16:30:17.803Z,1.8
2018-06-15T16:32:17.576Z,1.3
2018-06-15T16:34:18.408Z,1.2
2018-06-15T16:36:17.892Z,1.4
2018-06-15T16:38:17.675Z,1.1
2018-06-15T16:40:17.951Z,1.2
2018-06-15T16:42:17.727Z,1
2018-06-15T16:44:18.526Z,1.6
2018-06-15T16:46:17.571Z,1.4
2018-06-15T16:48:18.377Z,1
2018-06-15T16:50:18.208Z,1.3
2018-06-15T16:52:18.021Z,1
2018-06-15T16:54:17.829Z,1.2
2018-06-15T16:56:17.881Z,0.9
2018-06-15T16:58:17.694Z,1
2018-06-15T17:00:18.513Z,1.6
2018-06-15T17:02:18.307Z,1.2
2018-06-15T17:04:18.091Z,1.6
2018-06-15T17:06:17.595Z,0.9
2018-06-15T17:08:18.407Z,1.2
2018-06-15T17:10:17.672Z,1.4
2018-06-15T17:12:18.465Z,1.4
2018-06-15T17:14:18.252Z,1.2
2018-06-15T17:16:18.288Z,1.1
2018-06-15T17:18:18.155Z,0.9
2018-06-15T17:20:17.945Z,2.4
2018-06-15T17:22:17.781Z,1.6
2018-06-15T17:24:17.590Z,1.1
2018-06-15T17:26:17.617Z,1.2
2018-06-15T17:28:18.400Z,1.7
2018-06-15T17:30:18.233Z,1.4
2018-06-15T17:32:18.032Z,1.4
2018-06-15T17:34:17.820Z,1
2018-06-15T17:36:17.900Z,1.1
2018-06-15T17:38:17.729Z,1.5
2018-06-15T17:40:18.006Z,1.2
2018-06-15T17:42:18.528Z,1.2
2018-06-15T17:44:18.486Z,0.9
2018-06-15T17:46:18.016Z,1.5
2018-06-15T17:48:17.828Z,1.1
2018-06-15T17:50:17.645Z,0.9
2018-06-15T17:52:18.461Z,1.4
2018-06-15T17:54:18.267Z,1.2
2018-06-15T17:56:17.746Z,1.2
2018-06-15T17:58:18.519Z,1.7
2018-06-15T18:00:18.345Z,1.4
2018-06-15T18:02:18.126Z,1.5
2018-06-15T18:04:17.938Z,1.9
2018-06-15T18:06:18.018Z,1.5
2018-06-15T18:08:17.800Z,1.4
2018-06-15T18:10:17.984Z,1.3
2018-06-15T18:12:17.799Z,1.5
2018-06-15T18:14:17.584Z,1.4
2018-06-15T18:16:18.070Z,1
2018-06-15T18:18:17.931Z,1
2018-06-15T18:20:17.760Z,0.6
2018-06-15T18:22:17.550Z,0.9
2018-06-15T18:24:18.344Z,1.5
2018-06-15T18:26:17.814Z,1.2
2018-06-15T18:28:17.605Z,1.4
2018-06-15T18:30:18.438Z,1.8
2018-06-15T18:32:18.240Z,1.9
2018-06-15T18:34:18.021Z,1.6
2018-06-15T18:36:18.102Z,1.4
2018-06-15T18:38:17.900Z,1.1
2018-06-15T18:40:18.125Z,1.4
2018-06-15T18:42:17.913Z,1.2
2018-06-15T18:44:17.713Z,1.4
2018-06-15T18:46:18.242Z,1.3
2018-06-15T18:48:18.031Z,1.2
2018-06-15T18:50:17.840Z,1.8
2018-06-15T18:52:17.626Z,1.4
2018-06-15T18:54:18.469Z,1.9
2018-06-15T18:56:18.016Z,2
2018-06-15T18:58:17.814Z,1.8
2018-06-15T19:00:17.622Z,1.8
2018-06-15T19:02:18.401Z,2.1
2018-06-15T19:04:18.170Z,2
2018-06-15T19:06:18.192Z,1.5
2018-06-15T19:08:17.961Z,1.1
2018-06-15T19:10:18.207Z,1.4
2018-06-15T19:12:17.976Z,1.4
2018-06-15T19:14:17.790Z,1.5
2018-06-15T19:16:18.353Z,1.7
2018-06-15T19:18:18.183Z,1.8
2018-06-15T19:20:18.050Z,1.6
2018-06-15T19:22:17.831Z,5
2018-06-15T19:24:17.605Z,4.2
2018-06-15T19:26:18.202Z,4
2018-06-15T19:28:17.990Z,3.3
2018-06-15T19:30:17.889Z,4.4
2018-06-15T19:32:17.684Z,4.3
2018-06-15T19:34:18.486Z,4.4
2018-06-15T19:36:17.988Z,3.7
2018-06-15T19:38:17.800Z,3.6
2018-06-15T19:40:18.028Z,2.2
2018-06-15T19:42:17.812Z,2.4
2018-06-15T19:44:17.615Z,2.4
2018-06-15T19:46:18.191Z,2
2018-06-15T19:48:17.974Z,1.9
2018-06-15T19:50:17.832Z,1.7
2018-06-15T19:52:17.599Z,2.1
2018-06-15T19:54:18.404Z,2.7
2018-06-15T19:56:17.939Z,2.8
2018-06-15T19:58:17.757Z,1.7
2018-06-15T20:00:17.561Z,2.2
2018-06-15T20:02:18.350Z,1.9
2018-06-15T20:04:18.139Z,1.9
2018-06-15T20:06:17.933Z,2.3
2018-06-15T20:08:17.716Z,2.1
2018-06-15T20:10:17.958Z,1.7
2018-06-15T20:12:17.762Z,1.9
2018-06-15T20:14:17.585Z,2
2018-06-15T20:16:18.498Z,2.7
2018-06-15T20:18:18.355Z,2.4
2018-06-15T20:20:18.163Z,1.9
2018-06-15T20:22:17.956Z,1.9
2018-06-15T20:24:17.735Z,1.6
2018-06-15T20:26:17.820Z,1.7
2018-06-15T20:28:17.605Z,2.2
2018-06-15T20:30:18.470Z,1.8
2018-06-15T20:32:18.254Z,1.9
2018-06-15T20:34:18.030Z,1.9
2018-06-15T20:36:18.114Z,2.6
2018-06-15T20:38:18.180Z,2.3
2018-06-15T20:40:18.460Z,2.6
2018-06-15T20:42:18.291Z,1.5
2018-06-15T20:44:18.092Z,1.6
2018-06-15T20:46:17.601Z,2.3
2018-06-15T20:48:18.388Z,1.6
2018-06-15T20:50:18.235Z,2.5
2018-06-15T20:52:18.022Z,1.5
2018-06-15T20:54:17.831Z,2
2018-06-15T20:56:18.371Z,1.8
2018-06-15T20:58:18.162Z,1.4
2018-06-15T21:00:17.945Z,1.5
2018-06-15T21:02:17.730Z,1.7
2018-06-15T21:04:18.511Z,1.6
2018-06-15T21:06:18.024Z,2
2018-06-15T21:08:17.865Z,2.2
2018-06-15T21:10:18.107Z,1.9
2018-06-15T21:12:17.906Z,1.9
2018-06-15T21:14:17.703Z,1.4
2018-06-15T21:16:17.757Z,2.6
2018-06-15T21:18:17.660Z,1.4
2018-06-15T21:20:18.480Z,3
2018-06-15T21:22:18.264Z,1.8
2018-06-15T21:24:18.040Z,1.8
2018-06-15T21:26:17.539Z,2.8
2018-06-15T21:28:18.336Z,2.1
2018-06-15T21:30:18.144Z,1.6
2018-06-15T21:32:17.930Z,1.8
2018-06-15T21:34:17.711Z,2.2
2018-06-15T21:36:17.770Z,2
2018-06-15T21:38:17.541Z,2.1
2018-06-15T21:40:17.827Z,2.5
2018-06-15T21:42:17.625Z,2.5
2018-06-15T21:44:18.442Z,3.2
2018-06-15T21:46:17.963Z,2.1
2018-06-15T21:48:17.745Z,2.3
2018-06-15T21:50:17.552Z,1.9
2018-06-15T21:52:18.324Z,2.5
2018-06-15T21:54:18.104Z,3.1
2018-06-15T21:56:17.676Z,2.1
2018-06-15T21:58:18.493Z,2.7
2018-06-15T22:00:18.365Z,2.3
2018-06-15T22:02:18.176Z,2.7
2018-06-15T22:04:17.996Z,2.3
2018-06-15T22:06:17.676Z,2.6
2018-06-15T22:08:18.463Z,2.9
2018-06-15T22:10:17.691Z,2.4
2018-06-15T22:12:18.482Z,3.5
2018-06-15T22:14:18.271Z,2.8
2018-06-15T22:16:18.331Z,2.7
2018-06-15T22:18:18.213Z,2.6
2018-06-15T22:20:18.049Z,3
2018-06-15T22:22:17.824Z,2.7
2018-06-15T22:24:17.627Z,3
2018-06-15T22:26:17.698Z,3.2
2018-06-15T22:28:18.501Z,3
2018-06-15T22:30:18.276Z,2.5
2018-06-15T22:32:18.056Z,3.2
2018-06-15T22:34:17.847Z,2.5
2018-06-15T22:36:17.841Z,2.7
2018-06-15T22:38:17.617Z,2.3
2018-06-15T22:40:17.901Z,2.9
2018-06-15T22:42:17.668Z,2.8
2018-06-15T22:44:18.501Z,2.7
2018-06-15T22:46:17.570Z,2.6
2018-06-15T22:48:18.348Z,3.3
2018-06-15T22:50:18.323Z,3.1
2018-06-15T22:52:18.110Z,2.6
2018-06-15T22:54:17.876Z,2.2
2018-06-15T22:56:17.911Z,2.2
2018-06-15T22:58:17.691Z,2.7
2018-06-15T23:00:18.494Z,3
2018-06-15T23:02:18.274Z,2.6
2018-06-15T23:04:18.037Z,2.6
2018-06-15T23:06:17.603Z,3.3
2018-06-15T23:08:18.411Z,3
2018-06-15T23:10:17.660Z,2.7
2018-06-15T23:12:18.466Z,2.3
2018-06-15T23:14:18.250Z,2.2
2018-06-15T23:16:17.738Z,2.4
2018-06-15T23:18:17.599Z,2.7
2018-06-15T23:20:18.402Z,2.5
2018-06-15T23:22:18.171Z,1.6
2018-06-15T23:24:17.927Z,2.6
2018-06-15T23:26:18.400Z,2.2
2018-06-15T23:28:18.176Z,1.9
2018-06-15T23:30:17.961Z,2.1
2018-06-15T23:32:17.745Z,2.2
2018-06-15T23:34:17.526Z,1.4
2018-06-15T23:36:17.526Z,1.9
2018-06-15T23:38:18.301Z,2.2
2018-06-15T23:40:17.534Z,2.7
2018-06-15T23:42:18.319Z,2.5
2018-06-15T23:44:18.121Z,2.1
2018-06-15T23:46:18.165Z,1.8
2018-06-15T23:48:17.970Z,2.5
2018-06-15T23:50:17.797Z,2.1
2018-06-15T23:52:17.587Z,1.9
2018-06-15T23:54:18.404Z,2
2018-06-15T23:56:17.538Z,1.4
2018-06-15T23:58:18.342Z,1.9
